createdAt,value
2018-07-02T00:02:27.854Z,69.70
2018-07-02T00:04:56.239Z,69.80
2018-07-02T00:07:25.585Z,70.40
2018-07-02T00:09:54.292Z,70.60
2018-07-02T00:12:23.407Z,70.60
2018-07-02T00:14:52.462Z,71.20
2018-07-02T00:17:20.857Z,71.30
2018-07-02T00:19:49.218Z,71.20
2018-07-02T00:22:17.590Z,71.70
2018-07-02T00:24:45.995Z,72.00
2018-07-02T00:27:14.327Z,72.20
2018-07-02T00:29:42.652Z,72.30
2018-07-02T00:32:11.010Z,72.70
2018-07-02T00:34:39.318Z,73.10
2018-07-02T00:37:07.657Z,73.10
2018-07-02T00:39:35.998Z,72.70
2018-07-02T00:42:04.363Z,73.50
2018-07-02T00:44:32.711Z,73.50
2018-07-02T00:49:29.100Z,74.00
2018-07-02T00:51:57.394Z,74.20
2018-07-02T00:54:25.737Z,74.80
2018-07-02T00:56:54.066Z,75.30
2018-07-02T00:59:22.393Z,75.00
2018-07-02T01:01:50.746Z,76.00
2018-07-02T01:04:19.116Z,75.50
2018-07-02T01:06:47.454Z,76.10
2018-07-02T01:09:15.814Z,75.70
2018-07-02T01:11:44.158Z,76.80
2018-07-02T01:14:12.486Z,77.00
2018-07-02T01:16:42.518Z,77.30
2018-07-02T01:19:10.843Z,77.40
2018-07-02T01:21:39.152Z,77.50
2018-07-02T01:24:07.516Z,77.90
2018-07-02T01:26:35.816Z,78.20
2018-07-02T01:29:04.168Z,78.30
2018-07-02T01:31:32.518Z,78.70
2018-07-02T01:34:00.866Z,79.00
2018-07-02T01:36:29.178Z,79.40
2018-07-02T01:38:57.530Z,79.20
2018-07-02T01:41:25.841Z,79.30
2018-07-02T01:43:54.182Z,79.10
2018-07-02T01:46:22.619Z,79.60
2018-07-02T01:48:50.957Z,79.80
2018-07-02T01:51:19.298Z,80.10
2018-07-02T01:53:47.660Z,80.40
2018-07-02T01:56:15.985Z,80.90
2018-07-02T01:58:44.329Z,81.20
2018-07-02T02:01:12.633Z,81.20
2018-07-02T02:03:40.980Z,81.40
2018-07-02T02:06:09.300Z,81.60
2018-07-02T02:08:37.620Z,81.90
2018-07-02T02:11:06.136Z,82.10
2018-07-02T02:13:34.460Z,82.30
2018-07-02T02:16:02.783Z,82.20
2018-07-02T02:18:31.134Z,82.70
2018-07-02T02:20:59.443Z,82.50
2018-07-02T02:23:27.792Z,82.90
2018-07-02T02:25:56.190Z,82.60
2018-07-02T02:28:24.515Z,82.60
2018-07-02T02:30:52.814Z,82.80
2018-07-02T02:33:21.180Z,83.00
2018-07-02T02:35:49.520Z,83.10
2018-07-02T02:38:17.925Z,83.10
2018-07-02T02:40:46.172Z,83.80
2018-07-02T02:43:14.534Z,84.10
2018-07-02T02:45:42.904Z,84.10
2018-07-02T02:48:11.294Z,84.30
2018-07-02T02:50:39.644Z,84.50
2018-07-02T02:53:07.948Z,84.50
2018-07-02T02:55:36.264Z,84.50
2018-07-02T02:58:05.243Z,84.50
2018-07-02T03:00:33.560Z,85.20
2018-07-02T03:03:01.876Z,85.30
2018-07-02T03:07:58.272Z,86.10
2018-07-02T03:10:26.626Z,86.30
2018-07-02T03:12:54.946Z,86.30
2018-07-02T03:15:23.268Z,86.20
2018-07-02T03:17:51.590Z,86.20
2018-07-02T03:20:19.982Z,86.80
2018-07-02T03:22:48.285Z,86.80
2018-07-02T03:27:44.744Z,86.70
2018-07-02T03:30:13.070Z,86.90
2018-07-02T03:32:41.388Z,86.90
2018-07-02T03:37:37.818Z,87.20
2018-07-02T03:40:06.102Z,87.20
2018-07-02T03:42:34.438Z,87.60
2018-07-02T03:45:02.746Z,87.80
2018-07-02T03:47:31.137Z,88.20
2018-07-02T03:49:59.480Z,88.30
2018-07-02T03:52:27.824Z,88.60
2018-07-02T03:54:56.134Z,89.00
2018-07-02T03:57:24.576Z,89.30
2018-07-02T03:59:52.966Z,89.20
2018-07-02T04:02:21.266Z,89.30
2018-07-02T04:04:49.618Z,89.10
2018-07-02T04:07:17.960Z,89.00
2018-07-02T04:09:46.251Z,89.70
2018-07-02T04:14:44.287Z,89.00
2018-07-02T04:17:12.658Z,89.30
2018-07-02T04:19:40.998Z,89.10
2018-07-02T04:22:09.339Z,89.20
2018-07-02T04:24:37.688Z,89.10
2018-07-02T04:27:06.071Z,88.80
2018-07-02T04:29:34.403Z,88.80
2018-07-02T04:32:02.794Z,89.20
2018-07-02T04:34:31.107Z,89.40
2018-07-02T04:36:59.506Z,89.80
2018-07-02T04:39:27.863Z,89.70
2018-07-02T04:41:56.216Z,89.70
2018-07-02T04:44:24.506Z,89.50
2018-07-02T04:46:52.968Z,89.70
2018-07-02T04:49:21.304Z,89.60
2018-07-02T04:51:49.660Z,89.70
2018-07-02T04:54:18.083Z,90.00
2018-07-02T04:56:46.507Z,89.60
2018-07-02T04:59:14.876Z,89.40
2018-07-02T05:01:43.291Z,89.10
2018-07-02T05:04:11.676Z,88.80
2018-07-02T05:06:40.043Z,88.70
2018-07-02T05:09:08.797Z,88.60
2018-07-02T05:11:37.186Z,89.10
2018-07-02T05:14:05.504Z,88.50
2018-07-02T05:16:33.883Z,88.50
2018-07-02T05:19:03.494Z,88.70
2018-07-02T05:21:31.835Z,88.90
2018-07-02T05:24:00.179Z,88.80
2018-07-02T05:26:28.794Z,88.70
2018-07-02T05:28:57.272Z,88.60
2018-07-02T05:31:29.720Z,89.20
2018-07-02T05:33:58.722Z,89.00
2018-07-02T05:36:27.116Z,89.30
2018-07-02T05:38:55.585Z,89.50
2018-07-02T05:41:23.954Z,89.20
2018-07-02T05:43:52.252Z,89.20
2018-07-02T05:46:20.868Z,89.70
2018-07-02T05:48:49.369Z,89.30
2018-07-02T05:51:17.664Z,89.00
2018-07-02T05:53:45.998Z,89.90
2018-07-02T05:56:14.300Z,89.80
2018-07-02T05:58:42.633Z,90.00
2018-07-02T06:01:11.225Z,90.20
2018-07-02T06:03:39.532Z,89.20
2018-07-02T06:06:07.865Z,89.90
2018-07-02T06:08:36.200Z,88.90
2018-07-02T06:11:04.540Z,89.70
2018-07-02T06:13:32.880Z,88.90
2018-07-02T06:16:01.170Z,89.30
2018-07-02T06:18:29.466Z,89.30
2018-07-02T06:20:57.760Z,88.90
2018-07-02T06:23:26.117Z,88.90
2018-07-02T06:25:54.461Z,89.40
2018-07-02T06:28:22.760Z,89.00
2018-07-02T06:30:51.078Z,88.50
2018-07-02T06:33:19.396Z,87.90
2018-07-02T06:35:47.681Z,88.30
2018-07-02T06:38:15.988Z,89.20
2018-07-02T06:40:44.320Z,89.00
2018-07-02T06:45:40.744Z,88.60
2018-07-02T06:48:09.060Z,87.40
2018-07-02T06:50:37.488Z,87.10
2018-07-02T06:53:06.132Z,87.80
2018-07-02T06:55:34.428Z,87.60
2018-07-02T06:58:02.758Z,87.80
2018-07-02T07:00:31.164Z,87.20
2018-07-02T07:02:59.458Z,86.70
2018-07-02T07:05:27.791Z,85.00
2018-07-02T07:07:56.093Z,85.70
2018-07-02T07:10:24.406Z,86.80
2018-07-02T07:12:52.743Z,86.40
2018-07-02T07:15:21.044Z,86.50
2018-07-02T07:17:49.378Z,86.10
2018-07-02T07:20:17.695Z,86.20
2018-07-02T07:22:45.985Z,84.10
2018-07-02T07:25:14.684Z,84.10
2018-07-02T07:27:42.994Z,82.80
2018-07-02T07:30:11.372Z,82.40
2018-07-02T07:32:39.675Z,82.00
2018-07-02T07:35:08.005Z,82.60
2018-07-02T07:40:04.482Z,81.60
2018-07-02T07:42:32.792Z,81.80
2018-07-02T07:45:01.037Z,80.70
2018-07-02T07:47:29.336Z,80.50
2018-07-02T07:49:57.649Z,79.50
2018-07-02T07:52:25.980Z,78.80
2018-07-02T07:54:54.258Z,78.10
2018-07-02T07:57:22.544Z,77.80
2018-07-02T07:59:50.906Z,77.50
2018-07-02T08:02:19.196Z,79.00
2018-07-02T08:04:47.506Z,78.40
2018-07-02T08:07:15.812Z,76.10
2018-07-02T08:09:44.116Z,76.10
2018-07-02T08:12:12.424Z,76.60
2018-07-02T08:14:40.742Z,76.60
2018-07-02T08:17:09.056Z,76.20
2018-07-02T08:19:37.376Z,72.00
2018-07-02T08:22:05.668Z,72.50
2018-07-02T08:24:34.010Z,71.30
2018-07-02T08:27:02.389Z,70.90
2018-07-02T08:29:30.736Z,69.00
2018-07-02T08:31:59.236Z,67.80
2018-07-02T08:34:27.572Z,65.60
2018-07-02T08:36:55.873Z,65.80
2018-07-02T08:39:24.365Z,66.80
2018-07-02T08:41:52.710Z,65.70
2018-07-02T08:44:21.010Z,66.90
2018-07-02T08:46:49.406Z,65.00
2018-07-02T08:49:17.739Z,62.90
2018-07-02T08:51:46.066Z,63.90
2018-07-02T08:54:14.438Z,59.80
2018-07-02T08:56:43.145Z,56.00
2018-07-02T08:59:11.640Z,55.00
2018-07-02T09:01:40.048Z,53.70
2018-07-02T09:04:08.354Z,54.70
2018-07-02T09:06:36.684Z,53.20
2018-07-02T09:09:08.200Z,54.90
2018-07-02T09:11:36.776Z,55.10
2018-07-02T09:14:05.223Z,55.60
2018-07-02T09:16:33.551Z,52.70
2018-07-02T09:19:01.849Z,52.70
2018-07-02T09:21:30.256Z,55.00
2018-07-02T09:23:58.584Z,52.10
2018-07-02T09:26:26.915Z,54.30
2018-07-02T09:28:55.468Z,53.80
2018-07-02T09:31:23.915Z,54.70
2018-07-02T09:33:52.218Z,54.90
2018-07-02T09:36:20.548Z,55.30
2018-07-02T09:38:48.897Z,53.40
2018-07-02T09:41:17.187Z,52.40
2018-07-02T09:43:45.543Z,53.80
2018-07-02T09:46:13.796Z,55.50
2018-07-02T09:48:42.106Z,53.30
2018-07-02T09:51:10.422Z,53.30
2018-07-02T09:53:38.782Z,53.30
2018-07-02T09:56:07.079Z,52.60
2018-07-02T09:58:35.484Z,52.30
2018-07-02T10:01:03.808Z,50.90
2018-07-02T10:03:32.135Z,50.60
2018-07-02T10:06:00.461Z,50.80
2018-07-02T10:08:28.825Z,48.10
2018-07-02T10:10:57.113Z,46.40
2018-07-02T10:13:25.387Z,46.90
2018-07-02T10:15:53.693Z,47.10
2018-07-02T10:18:22.070Z,47.80
2018-07-02T10:20:50.356Z,48.70
2018-07-02T10:23:18.657Z,49.50
2018-07-02T10:30:43.177Z,49.50
2018-07-02T10:33:11.428Z,50.20
2018-07-02T10:35:39.751Z,49.00
2018-07-02T10:38:08.067Z,50.00
2018-07-02T10:40:36.421Z,47.80
2018-07-02T10:43:04.820Z,48.60
2018-07-02T10:45:33.119Z,49.00
2018-07-02T10:48:01.414Z,50.30
2018-07-02T10:52:57.762Z,47.50
2018-07-02T10:55:26.063Z,48.90
2018-07-02T10:57:54.454Z,48.70
2018-07-02T11:00:22.804Z,50.10
2018-07-02T11:05:19.245Z,49.60
2018-07-02T11:07:47.533Z,48.40
2018-07-02T11:10:15.952Z,48.40
2018-07-02T11:12:44.277Z,48.70
2018-07-02T11:15:12.614Z,47.70
2018-07-02T11:17:40.960Z,48.90
2018-07-02T11:20:09.242Z,49.70
2018-07-02T11:22:37.580Z,47.70
2018-07-02T11:25:06.007Z,48.30
2018-07-02T11:27:34.361Z,48.40
2018-07-02T11:30:02.745Z,48.40
2018-07-02T11:32:31.041Z,47.90
2018-07-02T11:34:59.341Z,48.50
2018-07-02T11:37:27.801Z,47.80
2018-07-02T11:39:56.093Z,48.30
2018-07-02T11:42:24.419Z,47.50
2018-07-02T11:44:52.786Z,46.60
2018-07-02T11:47:21.131Z,48.40
2018-07-02T11:49:49.501Z,48.40
2018-07-02T11:52:17.864Z,48.40
2018-07-02T11:54:46.219Z,46.10
2018-07-02T11:57:14.529Z,47.10
2018-07-02T11:59:42.861Z,47.10
2018-07-02T12:02:11.270Z,47.90
2018-07-02T12:04:39.622Z,48.00
2018-07-02T12:07:07.949Z,46.50
2018-07-02T12:09:36.288Z,45.80
2018-07-02T12:12:04.621Z,47.00
2018-07-02T12:14:32.923Z,47.80
2018-07-02T12:17:01.291Z,46.60
2018-07-02T12:19:29.614Z,44.70
2018-07-02T12:21:57.926Z,46.60
2018-07-02T12:24:26.244Z,46.70
2018-07-02T12:26:54.575Z,45.40
2018-07-02T12:29:22.906Z,45.80
2018-07-02T12:31:51.235Z,45.40
2018-07-02T12:34:19.779Z,46.40
2018-07-02T12:36:48.089Z,45.20
2018-07-02T12:41:44.668Z,47.40
2018-07-02T12:46:43.258Z,46.40
2018-07-02T12:49:12.011Z,45.70
2018-07-02T12:51:40.504Z,44.60
2018-07-02T12:54:08.852Z,44.50
2018-07-02T12:56:37.225Z,44.70
2018-07-02T12:59:05.580Z,45.50
2018-07-02T13:01:33.901Z,45.30
2018-07-02T13:04:02.366Z,45.70
2018-07-02T13:06:30.696Z,44.20
2018-07-02T13:11:28.464Z,43.90
2018-07-02T13:13:56.821Z,43.30
2018-07-02T13:16:25.289Z,43.80
2018-07-02T13:18:53.598Z,43.60
2018-07-02T13:21:22.815Z,43.50
2018-07-02T13:23:51.117Z,42.60
2018-07-02T13:26:19.514Z,43.80
2018-07-02T13:28:47.871Z,42.50
2018-07-02T13:31:16.244Z,43.90
2018-07-02T13:33:44.580Z,41.80
2018-07-02T13:36:13.297Z,42.30
2018-07-02T13:38:41.662Z,41.40
2018-07-02T13:41:09.966Z,40.90
2018-07-02T13:43:38.292Z,41.60
2018-07-02T13:46:06.678Z,41.20
2018-07-02T13:48:35.531Z,41.90
2018-07-02T13:51:03.884Z,42.10
2018-07-02T13:53:32.748Z,42.20
2018-07-02T13:56:02.856Z,44.90
2018-07-02T13:58:31.266Z,41.70
2018-07-02T14:00:59.594Z,47.70
2018-07-02T14:03:29.183Z,49.80
2018-07-02T14:05:58.022Z,51.10
2018-07-02T14:08:26.360Z,50.80
2018-07-02T14:10:54.703Z,50.10
2018-07-02T14:13:23.041Z,50.40
2018-07-02T14:15:51.738Z,50.60
2018-07-02T14:20:48.171Z,49.40
2018-07-02T14:23:16.574Z,49.30
2018-07-02T14:25:44.890Z,49.00
2018-07-02T14:28:13.218Z,49.20
2018-07-02T14:30:42.314Z,48.90
2018-07-02T14:33:10.709Z,50.10
2018-07-02T14:35:39.151Z,48.20
2018-07-02T14:38:07.459Z,47.80
2018-07-02T14:40:35.770Z,47.50
2018-07-02T14:43:04.088Z,47.80
2018-07-02T14:45:32.637Z,47.60
2018-07-02T14:48:00.758Z,47.20
2018-07-02T14:50:29.068Z,47.40
2018-07-02T14:52:57.406Z,47.80
2018-07-02T14:55:25.887Z,48.00
2018-07-02T14:57:54.228Z,47.20
2018-07-02T15:00:22.575Z,47.00
2018-07-02T15:02:50.863Z,47.80
2018-07-02T15:05:19.168Z,47.30
2018-07-02T15:07:47.439Z,47.10
2018-07-02T15:10:15.745Z,46.80
2018-07-02T15:12:44.053Z,46.20
2018-07-02T15:15:12.466Z,46.40
2018-07-02T15:17:40.958Z,46.30
2018-07-02T15:20:09.273Z,47.50
2018-07-02T15:22:37.785Z,46.50
2018-07-02T15:25:06.138Z,47.00
2018-07-02T15:30:02.585Z,47.90
2018-07-02T15:32:30.901Z,47.90
2018-07-02T15:34:59.265Z,48.40
2018-07-02T15:37:27.559Z,48.10
2018-07-02T15:39:55.895Z,47.90
2018-07-02T15:42:24.299Z,48.80
2018-07-02T15:44:53.277Z,48.40
2018-07-02T15:47:21.597Z,48.40
2018-07-02T15:49:49.967Z,49.00
2018-07-02T15:52:18.308Z,48.60
2018-07-02T15:54:46.645Z,48.90
2018-07-02T15:57:16.093Z,50.00
2018-07-02T15:59:44.524Z,50.00
2018-07-02T16:02:12.879Z,50.50
2018-07-02T16:04:41.869Z,49.80
2018-07-02T16:07:10.413Z,50.20
2018-07-02T16:09:38.737Z,50.30
2018-07-02T16:12:07.069Z,50.60
2018-07-02T16:19:31.667Z,50.60
2018-07-02T16:22:00.068Z,50.40
2018-07-02T16:24:28.395Z,51.30
2018-07-02T16:26:56.759Z,50.00
2018-07-02T16:29:25.190Z,50.80
2018-07-02T16:31:53.543Z,51.30
2018-07-02T16:34:22.016Z,50.60
2018-07-02T16:36:51.178Z,50.30
2018-07-02T16:39:19.768Z,50.30
2018-07-02T16:41:48.200Z,51.40
2018-07-02T16:46:44.873Z,51.50
2018-07-02T16:49:13.247Z,51.30
2018-07-02T16:51:41.745Z,51.30
2018-07-02T16:54:10.045Z,51.40
2018-07-02T16:56:38.650Z,51.80
2018-07-02T16:59:07.458Z,52.60
2018-07-02T17:01:35.955Z,52.20
2018-07-02T17:09:02.813Z,51.30
2018-07-02T17:11:31.111Z,51.60
2018-07-02T17:13:59.424Z,51.90
2018-07-02T17:16:29.303Z,50.90
2018-07-02T17:21:25.872Z,51.80
2018-07-02T17:23:54.332Z,51.60
2018-07-02T17:28:51.051Z,52.20
2018-07-02T17:31:19.357Z,52.00
2018-07-02T17:36:15.756Z,52.30
2018-07-02T17:38:44.546Z,52.70
2018-07-02T17:41:12.886Z,52.80
2018-07-02T17:43:41.229Z,52.70
2018-07-02T17:46:09.710Z,52.70
2018-07-02T17:48:38.050Z,53.10
2018-07-02T17:51:06.470Z,53.00
2018-07-02T17:53:34.873Z,53.00
2018-07-02T17:56:03.180Z,53.40
2018-07-02T17:58:31.522Z,52.70
2018-07-02T18:00:59.900Z,52.80
2018-07-02T18:03:28.206Z,52.80
2018-07-02T18:05:56.522Z,53.30
2018-07-02T18:08:24.826Z,53.90
2018-07-02T18:10:53.152Z,53.60
2018-07-02T18:13:21.480Z,54.20
2018-07-02T18:15:49.790Z,54.50
2018-07-02T18:18:18.066Z,54.50
2018-07-02T18:20:46.539Z,54.50
2018-07-02T18:23:14.871Z,55.60
2018-07-02T18:25:43.251Z,56.40
2018-07-02T18:28:11.627Z,57.00
2018-07-02T18:30:40.004Z,57.40
2018-07-02T18:33:08.609Z,57.90
2018-07-02T18:35:37.018Z,57.50
2018-07-02T18:38:05.417Z,58.30
2018-07-02T18:40:33.759Z,58.80
2018-07-02T18:43:02.134Z,59.70
2018-07-02T18:45:30.509Z,61.10
2018-07-02T18:50:27.020Z,63.20
2018-07-02T18:52:55.558Z,64.20
2018-07-02T18:55:23.997Z,66.20
2018-07-02T18:57:52.331Z,67.60
2018-07-02T19:00:20.836Z,69.10
2018-07-02T19:02:49.222Z,71.00
2018-07-02T19:05:17.735Z,71.70
2018-07-02T19:10:15.305Z,74.90
2018-07-02T19:12:43.667Z,75.80
2018-07-02T19:15:13.977Z,77.00
2018-07-02T19:20:11.523Z,79.30
2018-07-02T19:22:40.213Z,80.60
2018-07-02T19:25:08.946Z,81.90
2018-07-02T19:27:37.516Z,82.60
2018-07-02T19:30:05.938Z,83.50
2018-07-02T19:32:34.302Z,84.60
2018-07-02T19:37:30.787Z,85.20
2018-07-02T19:39:59.131Z,85.80
2018-07-02T19:42:27.473Z,87.30
2018-07-02T19:44:55.837Z,88.50
2018-07-02T19:47:24.203Z,89.30
2018-07-02T19:49:52.623Z,90.00
2018-07-02T19:52:22.523Z,90.30
2018-07-02T19:54:51.059Z,90.50
2018-07-02T19:57:19.510Z,90.70
2018-07-02T19:59:47.921Z,91.10
2018-07-02T20:02:16.297Z,91.30
2018-07-02T20:04:44.686Z,91.60
2018-07-02T20:07:13.159Z,92.00
2018-07-02T20:09:42.182Z,92.40
2018-07-02T20:12:10.626Z,92.40
2018-07-02T20:14:39.013Z,92.70
2018-07-02T20:17:09.382Z,92.80
2018-07-02T20:19:38.020Z,92.90
2018-07-02T20:22:06.365Z,93.30
2018-07-02T20:27:05.200Z,93.60
2018-07-02T20:29:34.077Z,93.80
2018-07-02T20:32:02.815Z,94.10
2018-07-02T20:34:31.221Z,94.70
2018-07-02T20:36:59.562Z,94.70
2018-07-02T20:39:28.131Z,94.60
2018-07-02T20:41:58.731Z,95.00
2018-07-02T20:44:27.774Z,95.30
2018-07-02T20:46:56.119Z,95.70
2018-07-02T20:49:24.535Z,95.80
2018-07-02T20:51:53.220Z,96.10
2018-07-02T20:54:21.692Z,96.00
2018-07-02T20:56:50.264Z,96.30
2018-07-02T20:59:18.733Z,96.60
2018-07-02T21:01:48.842Z,97.20
2018-07-02T21:04:18.014Z,97.10
2018-07-02T21:06:46.443Z,97.40
2018-07-02T21:09:15.245Z,97.50
2018-07-02T21:11:43.674Z,97.50
2018-07-02T21:14:12.268Z,98.00
2018-07-02T21:16:42.808Z,98.30
2018-07-02T21:19:11.756Z,98.40
2018-07-02T21:21:40.753Z,98.60
2018-07-02T21:24:09.368Z,98.90
2018-07-02T21:26:37.839Z,99.00
2018-07-02T21:29:06.183Z,99.10
2018-07-02T21:31:35.651Z,99.20
2018-07-02T21:34:04.372Z,99.60
2018-07-02T21:39:01.184Z,99.90
2018-07-02T21:41:30.680Z,99.90
2018-07-02T21:43:59.558Z,99.90
2018-07-02T21:46:28.404Z,99.90
2018-07-02T21:48:56.766Z,99.90
2018-07-02T21:51:25.099Z,99.90
2018-07-02T21:53:53.534Z,99.90
2018-07-02T21:56:21.860Z,99.90
2018-07-02T21:58:50.196Z,99.90
2018-07-02T22:01:21.547Z,99.90
2018-07-02T22:03:50.428Z,99.90
2018-07-02T22:06:19.324Z,99.90
2018-07-02T22:08:47.677Z,99.90
2018-07-02T22:11:16.547Z,99.90
2018-07-02T22:13:44.909Z,99.90
2018-07-02T22:18:41.380Z,99.90
2018-07-02T22:21:11.339Z,99.90
2018-07-02T22:23:39.794Z,99.90
2018-07-02T22:26:08.293Z,99.90
2018-07-02T22:28:36.741Z,99.90
2018-07-02T22:31:05.217Z,99.90
2018-07-02T22:33:33.521Z,99.90
2018-07-02T22:36:01.919Z,99.90
2018-07-02T22:38:30.263Z,99.90
2018-07-02T22:40:58.588Z,99.90
2018-07-02T22:43:27.001Z,99.90
2018-07-02T22:45:56.391Z,99.90
2018-07-02T22:48:25.025Z,99.90
2018-07-02T22:50:53.361Z,99.90
2018-07-02T22:53:21.675Z,99.90
2018-07-02T22:55:58.717Z,99.90
2018-07-02T22:58:27.321Z,99.90
2018-07-02T23:00:56.236Z,99.90
2018-07-02T23:03:24.791Z,99.90
2018-07-02T23:05:53.785Z,99.90
2018-07-02T23:08:22.187Z,99.90
2018-07-02T23:10:51.582Z,99.90
2018-07-02T23:13:20.240Z,99.90
2018-07-02T23:15:48.791Z,99.90
2018-07-02T23:18:17.285Z,99.90
2018-07-02T23:20:45.623Z,99.90
2018-07-02T23:23:13.925Z,99.90
2018-07-02T23:25:42.285Z,99.90
2018-07-02T23:28:10.631Z,99.90
2018-07-02T23:30:38.932Z,99.90
2018-07-02T23:33:07.234Z,99.90
2018-07-02T23:35:35.582Z,99.90
2018-07-02T23:38:03.929Z,99.90
2018-07-02T23:40:32.405Z,99.90
2018-07-02T23:43:00.803Z,99.90
2018-07-02T23:45:31.718Z,99.90
2018-07-02T23:48:00.381Z,99.90
2018-07-02T23:50:28.777Z,99.90
2018-07-02T23:52:57.142Z,99.90
2018-07-02T23:55:48.544Z,99.90
2018-07-02T23:58:17.080Z,99.90
